Time;durP1;ratioP1;P1;durP2;ratioP2;P2;SDS_P1;SDS_P2;PMS_P1;PMS_P2;Temp;Humidity;BMP_temperature;BMP_pressure;BME280_temperature;BME280_humidity;BME280_pressure;Samples;Min_cycle;Max_cycle;Signal;HPM_P1;HPM_P2
2021/09/15 00:00:51;;;;;;;12.55;11.35;;;22.20;83.70;;;;;;4193647;28;20056;-61
2021/09/15 00:03:13;;;;;;;13.07;11.88;;;22.20;83.80;;;;;;4193200;28;20128;-61
2021/09/15 00:05:35;;;;;;;14.20;12.80;;;22.20;83.70;;;;;;4192661;28;20056;-61
2021/09/15 00:07:57;;;;;;;13.35;12.10;;;22.20;83.80;;;;;;4192469;28;20482;-61
2021/09/15 00:10:21;;;;;;;13.07;11.88;;;22.20;83.80;;;;;;4192888;28;20055;-61
2021/09/15 00:12:43;;;;;;;11.93;11.02;;;22.20;83.70;;;;;;4193068;28;20056;-62
2021/09/15 00:15:06;;;;;;;12.25;11.25;;;22.20;83.70;;;;;;4192269;28;20052;-62
2021/09/15 00:17:29;;;;;;;13.00;11.93;;;22.20;83.70;;;;;;4192466;28;20036;-61
2021/09/15 00:19:51;;;;;;;13.77;12.48;;;22.20;83.70;;;;;;4193217;28;20052;-61
2021/09/15 00:22:13;;;;;;;13.45;12.20;;;22.20;83.80;;;;;;4192999;28;20048;-61
2021/09/15 00:24:35;;;;;;;13.52;12.40;;;22.10;83.70;;;;;;4192659;28;20045;-61
2021/09/15 00:26:58;;;;;;;12.68;11.70;;;22.20;83.70;;;;;;4191502;28;20052;-61
2021/09/15 00:29:20;;;;;;;12.98;11.82;;;22.20;83.70;;;;;;4192788;28;20522;-61
2021/09/15 00:31:42;;;;;;;12.20;11.20;;;22.20;83.60;;;;;;4188034;28;20067;-62
2021/09/15 00:34:05;;;;;;;12.07;11.05;;;22.10;83.60;;;;;;4176269;28;20084;-61
2021/09/15 00:36:27;;;;;;;13.45;12.15;;;22.10;83.60;;;;;;4175986;28;20415;-62
2021/09/15 00:38:49;;;;;;;13.55;12.25;;;22.20;83.70;;;;;;4175931;28;20053;-61
2021/09/15 00:41:11;;;;;;;12.07;11.00;;;22.10;83.60;;;;;;4176027;28;20076;-60
2021/09/15 00:43:34;;;;;;;11.68;10.65;;;22.10;83.50;;;;;;4192788;28;20112;-62
2021/09/15 00:45:58;;;;;;;12.68;11.40;;;22.20;83.70;;;;;;4190215;28;20566;-61
2021/09/15 00:48:20;;;;;;;12.88;11.77;;;22.20;83.70;;;;;;4181176;28;20110;-63
2021/09/15 00:50:43;;;;;;;11.93;10.90;;;22.20;83.70;;;;;;4175565;28;20498;-60
2021/09/15 00:53:06;;;;;;;12.05;11.05;;;22.20;83.60;;;;;;4192250;28;20053;-60
2021/09/15 00:55:28;;;;;;;12.00;10.85;;;22.10;83.50;;;;;;4175904;28;20532;-60
2021/09/15 00:57:51;;;;;;;11.30;10.30;;;22.10;83.40;;;;;;4175607;28;20094;-61
2021/09/15 01:00:16;;;;;;;12.00;11.00;;;22.10;83.40;;;;;;4175858;28;20044;-61
2021/09/15 01:02:38;;;;;;;11.85;10.85;;;22.10;83.60;;;;;;4188183;28;20041;-61
2021/09/15 01:05:06;;;;;;;11.95;10.90;;;22.10;83.50;;;;;;4191917;28;20052;-61
2021/09/15 01:07:29;;;;;;;12.00;10.98;;;22.10;83.60;;;;;;4175784;28;20135;-61
2021/09/15 01:09:51;;;;;;;11.90;10.90;;;22.10;83.60;;;;;;4157852;28;20045;-61
2021/09/15 01:12:20;;;;;;;12.48;11.30;;;22.10;83.50;;;;;;4174444;28;20056;-61
2021/09/15 01:15:12;;;;;;;10.63;9.87;;;22.10;83.60;;;;;;4158861;28;20057;-61
2021/09/15 01:18:15;;;;;;;11.85;10.55;;;22.10;83.60;;;;;;4158958;28;20077;-61
2021/09/15 01:20:57;;;;;;;11.93;10.73;;;22.10;83.70;;;;;;4158776;28;20065;-61
2021/09/15 01:23:39;;;;;;;11.57;10.73;;;22.10;83.70;;;;;;4173475;28;20059;-61
2021/09/15 01:26:33;;;;;;;11.68;10.73;;;22.10;83.70;;;;;;4173646;28;20049;-61
2021/09/15 01:29:16;;;;;;;12.27;11.18;;;22.10;83.80;;;;;;4172680;28;20061;-60
2021/09/15 01:31:38;;;;;;;12.55;11.48;;;22.10;83.80;;;;;;4173771;28;20052;-60
2021/09/15 01:34:00;;;;;;;12.23;11.23;;;22.00;83.80;;;;;;4188426;28;20053;-61
2021/09/15 01:36:24;;;;;;;13.35;12.07;;;22.10;83.80;;;;;;4179015;28;20043;-61
2021/09/15 01:38:46;;;;;;;14.07;12.52;;;22.10;83.90;;;;;;4173938;28;20585;-61
2021/09/15 01:41:08;;;;;;;14.35;13.05;;;22.10;84.00;;;;;;4173806;28;20052;-61
2021/09/15 01:43:31;;;;;;;13.85;12.65;;;22.10;84.00;;;;;;4189787;28;20054;-61
2021/09/15 01:45:53;;;;;;;13.43;12.30;;;22.10;84.10;;;;;;4174721;28;20077;-61
2021/09/15 01:48:17;;;;;;;13.23;12.07;;;22.10;84.20;;;;;;4173717;28;20134;-61
2021/09/15 01:50:39;;;;;;;13.50;11.95;;;22.10;84.30;;;;;;4189212;28;20063;-61
2021/09/15 01:53:03;;;;;;;13.90;12.70;;;22.10;84.30;;;;;;4188805;28;20060;-62
2021/09/15 01:55:27;;;;;;;12.75;11.65;;;22.10;84.50;;;;;;4189713;28;20095;-62
2021/09/15 01:58:12;;;;;;;13.30;12.10;;;22.10;84.60;;;;;;4160876;28;20072;-61
2021/09/15 02:00:56;;;;;;;14.05;12.88;;;22.10;84.50;;;;;;4184562;28;20071;-61
2021/09/15 02:03:38;;;;;;;13.57;12.27;;;22.00;84.50;;;;;;4175552;28;20135;-61
2021/09/15 02:06:14;;;;;;;13.63;12.32;;;22.00;84.60;;;;;;4180031;28;20086;-61
2021/09/15 02:08:42;;;;;;;14.00;12.80;;;22.00;84.60;;;;;;4173562;28;20095;-61
2021/09/15 02:11:24;;;;;;;14.93;13.60;;;22.00;84.50;;;;;;4173106;28;20179;-61
2021/09/15 02:13:46;;;;;;;14.70;13.27;;;22.00;84.50;;;;;;4173339;28;20562;-61
2021/09/15 02:20:45;;;;;;;14.38;13.10;;;22.00;84.70;;;;;;4190457;28;20051;-61
2021/09/15 02:23:25;;;;;;;14.65;13.35;;;22.00;84.50;;;;;;4188432;28;20049;-61
2021/09/15 02:26:02;;;;;;;14.77;13.38;;;22.00;85.40;;;;;;4189942;28;20058;-60
2021/09/15 02:28:32;;;;;;;;;;;22.00;84.70;;;;;;4189989;28;20066;-61
2021/09/15 02:31:20;;;;;;;15.20;13.75;;;22.00;84.30;;;;;;4183960;28;20306;-61
2021/09/15 02:34:10;;;;;;;14.68;13.35;;;22.00;84.50;;;;;;4189314;28;20407;-63
2021/09/15 02:36:49;;;;;;;14.75;13.35;;;22.00;85.50;;;;;;4189632;28;20056;-62
2021/09/15 02:39:23;;;;;;;14.50;13.20;;;22.00;84.70;;;;;;4192420;28;20044;-61
2021/09/15 02:41:51;;;;;;;14.98;13.68;;;22.00;84.80;;;;;;4188468;28;20054;-61
2021/09/15 02:44:25;;;;;;;15.85;14.38;;;22.00;85.00;;;;;;4177607;28;20075;-61
2021/09/15 02:47:01;;;;;;;14.63;13.15;;;22.00;84.80;;;;;;4176148;28;20055;-61
2021/09/15 02:49:52;;;;;;;15.57;13.82;;;22.00;84.90;;;;;;4145279;28;20053;-62
2021/09/15 02:52:43;;;;;;;16.27;14.77;;;22.00;84.90;;;;;;4153681;28;20049;-60
2021/09/15 02:55:24;;;;;;;15.43;14.00;;;22.00;84.80;;;;;;4185835;28;20044;-61
2021/09/15 02:57:51;;;;;;;15.15;13.75;;;22.00;84.90;;;;;;4193105;28;20530;-61
2021/09/15 03:00:25;;;;;;;15.27;13.82;;;22.00;85.90;;;;;;4192774;28;20443;-64
2021/09/15 03:02:56;;;;;;;15.60;14.10;;;22.00;85.00;;;;;;4176101;28;20113;-59
2021/09/15 03:05:38;;;;;;;15.35;13.95;;;22.00;85.00;;;;;;4176135;28;20049;-60
2021/09/15 03:08:17;;;;;;;15.75;14.40;;;22.00;85.10;;;;;;4176084;28;20096;-62
2021/09/15 03:10:40;;;;;;;15.80;14.43;;;21.90;85.10;;;;;;4159711;28;20053;-62
2021/09/15 03:13:03;;;;;;;16.25;14.75;;;21.90;85.10;;;;;;4159787;28;20527;-61
2021/09/15 03:15:26;;;;;;;16.25;14.75;;;21.90;85.30;;;;;;4169144;28;20052;-60
2021/09/15 03:17:48;;;;;;;15.23;13.82;;;22.00;85.30;;;;;;4176222;28;20061;-61
2021/09/15 03:20:11;;;;;;;15.43;14.05;;;21.90;85.30;;;;;;4191118;28;20048;-61
2021/09/15 03:22:34;;;;;;;15.05;13.73;;;21.90;85.30;;;;;;4175820;28;20042;-60
2021/09/15 03:24:56;;;;;;;16.10;14.60;;;22.00;85.50;;;;;;4159690;28;20056;-61
2021/09/15 03:27:19;;;;;;;16.05;14.63;;;21.90;85.40;;;;;;4177473;28;20491;-60
2021/09/15 03:29:43;;;;;;;17.33;15.63;;;21.90;85.50;;;;;;4175836;28;20049;-61
2021/09/15 03:32:05;;;;;;;16.27;14.88;;;21.90;85.60;;;;;;4188747;28;20513;-61
2021/09/15 03:34:27;;;;;;;17.95;16.27;;;21.90;85.60;;;;;;4192450;28;20051;-61
2021/09/15 03:36:49;;;;;;;16.88;15.32;;;21.90;85.60;;;;;;4192527;28;20815;-61
2021/09/15 03:39:14;;;;;;;17.83;16.23;;;21.90;85.60;;;;;;4192287;28;20758;-61
2021/09/15 03:41:36;;;;;;;17.92;16.33;;;21.90;85.70;;;;;;4192100;28;20052;-61
2021/09/15 03:43:59;;;;;;;17.42;15.93;;;21.90;85.80;;;;;;4193306;28;20067;-60
2021/09/15 03:46:22;;;;;;;17.88;16.30;;;21.90;85.80;;;;;;4192084;28;20056;-60
2021/09/15 03:48:44;;;;;;;18.55;16.85;;;21.90;85.90;;;;;;4193221;28;20410;-61
2021/09/15 03:51:07;;;;;;;16.60;15.20;;;21.90;85.80;;;;;;4192101;28;20051;-61
2021/09/15 03:53:29;;;;;;;16.48;14.95;;;21.90;85.80;;;;;;4192030;28;20059;-62
2021/09/15 03:55:51;;;;;;;18.27;16.42;;;21.90;85.90;;;;;;4191585;28;20063;-61
2021/09/15 03:58:14;;;;;;;18.08;16.48;;;21.90;85.90;;;;;;4193429;28;20056;-61
2021/09/15 04:00:39;;;;;;;17.50;15.85;;;21.90;86.00;;;;;;4193453;28;20105;-60
2021/09/15 04:03:02;;;;;;;17.23;15.68;;;21.90;85.90;;;;;;4193300;28;20083;-61
2021/09/15 04:05:26;;;;;;;18.20;16.60;;;21.90;86.50;;;;;;4192008;28;20109;-61
2021/09/15 04:07:48;;;;;;;18.65;16.65;;;21.90;86.10;;;;;;4191718;28;20052;-61
2021/09/15 04:10:11;;;;;;;17.92;16.35;;;21.90;86.10;;;;;;4174798;28;20045;-61
2021/09/15 04:12:33;;;;;;;20.25;17.35;;;21.90;86.20;;;;;;4176498;28;20077;-62
2021/09/15 04:14:55;;;;;;;18.73;17.05;;;21.90;86.10;;;;;;4174999;28;20045;-61
2021/09/15 04:17:18;;;;;;;17.60;16.00;;;21.90;86.10;;;;;;4191801;28;20546;-61
2021/09/15 04:19:42;;;;;;;19.25;17.15;;;21.90;86.20;;;;;;4175118;28;20090;-61
2021/09/15 04:22:04;;;;;;;18.27;16.67;;;21.90;86.30;;;;;;4175415;28;20454;-62
2021/09/15 04:31:10;;;;;;;18.20;16.52;;;21.90;86.20;;;;;;4174828;28;20511;-60
2021/09/15 04:32:47;;;;;;;18.30;16.60;;;21.90;86.50;;;;;;4176407;28;20057;-61
2021/09/15 04:35:12;;;;;;;18.40;16.55;;;21.90;86.50;;;;;;4191208;28;20060;-61
2021/09/15 04:37:35;;;;;;;17.90;16.40;;;21.90;86.70;;;;;;4174157;28;20072;-61
2021/09/15 04:39:57;;;;;;;19.85;17.80;;;21.90;86.60;;;;;;4192863;28;20584;-61
2021/09/15 04:42:19;;;;;;;19.13;17.42;;;21.90;86.50;;;;;;4189730;28;20052;-62
2021/09/15 04:44:41;;;;;;;18.00;16.40;;;21.90;86.50;;;;;;4192405;28;20060;-61
2021/09/15 04:47:04;;;;;;;19.23;17.38;;;21.90;86.40;;;;;;4191192;28;20492;-60
2021/09/15 04:49:26;;;;;;;18.15;16.55;;;21.90;86.50;;;;;;4192419;28;20667;-60
2021/09/15 04:51:50;;;;;;;19.38;17.48;;;21.90;86.50;;;;;;4191237;28;20094;-60
2021/09/15 04:54:13;;;;;;;18.60;16.80;;;21.90;86.50;;;;;;4190370;28;20060;-60
2021/09/15 04:56:38;;;;;;;18.58;16.98;;;21.90;86.50;;;;;;4180783;28;20068;-61
2021/09/15 04:59:00;;;;;;;18.95;17.15;;;21.90;86.50;;;;;;4175563;28;20053;-61
2021/09/15 05:01:22;;;;;;;18.85;17.08;;;21.90;86.50;;;;;;4174102;28;20140;-61
2021/09/15 05:03:44;;;;;;;17.85;16.25;;;21.90;86.50;;;;;;4174314;28;20048;-61
2021/09/15 05:06:08;;;;;;;17.88;16.15;;;21.90;86.50;;;;;;4174353;28;20049;-60
2021/09/15 05:08:33;;;;;;;20.48;18.52;;;21.90;86.50;;;;;;4190223;28;20784;-61
2021/09/15 05:10:56;;;;;;;19.35;17.55;;;21.90;86.50;;;;;;4189942;28;20063;-61
2021/09/15 05:13:19;;;;;;;17.98;16.38;;;21.90;86.40;;;;;;4190597;28;20045;-61
2021/09/15 05:15:43;;;;;;;17.45;15.80;;;21.90;86.40;;;;;;4174152;28;20053;-60
2021/09/15 05:18:05;;;;;;;18.55;16.75;;;21.90;86.40;;;;;;4174284;28;20493;-61
2021/09/15 05:20:28;;;;;;;19.73;17.83;;;21.90;86.60;;;;;;4187038;28;20048;-61
2021/09/15 05:22:53;;;;;;;19.33;17.50;;;21.90;86.40;;;;;;4192109;28;20047;-61
2021/09/15 05:25:19;;;;;;;19.48;17.63;;;21.90;86.40;;;;;;4186032;28;20769;-61
2021/09/15 05:27:41;;;;;;;18.10;16.42;;;21.90;86.40;;;;;;4191627;28;20048;-61
2021/09/15 05:30:05;;;;;;;18.60;16.88;;;21.90;86.40;;;;;;4190425;28;20118;-61
2021/09/15 05:32:28;;;;;;;19.08;16.95;;;21.90;86.40;;;;;;4190103;28;20044;-61
2021/09/15 05:34:50;;;;;;;18.42;16.73;;;21.90;86.40;;;;;;4190197;28;20110;-61
2021/09/15 05:37:13;;;;;;;20.17;18.25;;;21.90;86.40;;;;;;4191788;28;20050;-61
2021/09/15 05:39:35;;;;;;;19.60;17.67;;;21.90;86.50;;;;;;4190034;28;20056;-62
2021/09/15 05:41:58;;;;;;;19.35;17.55;;;21.90;86.40;;;;;;4190051;28;20049;-61
2021/09/15 05:44:21;;;;;;;20.35;18.40;;;21.90;86.50;;;;;;4190081;28;20429;-60
2021/09/15 05:46:44;;;;;;;20.13;18.20;;;21.90;86.50;;;;;;4190262;28;20435;-61
2021/09/15 05:49:06;;;;;;;20.45;18.50;;;21.90;86.50;;;;;;4189763;28;20052;-58
2021/09/15 05:51:32;;;;;;;21.63;19.40;;;21.90;86.50;;;;;;4158657;28;20037;-60
2021/09/15 05:53:55;;;;;;;20.45;18.35;;;21.90;87.00;;;;;;4157128;28;20407;-59
2021/09/15 05:56:18;;;;;;;20.13;18.17;;;21.90;87.00;;;;;;4157310;28;20741;-61
2021/09/15 05:58:42;;;;;;;20.33;18.35;;;21.90;86.90;;;;;;4158686;28;20083;-59
2021/09/15 06:01:06;;;;;;;21.70;19.60;;;22.00;87.00;;;;;;4176397;28;20044;-60
2021/09/15 06:03:29;;;;;;;22.48;18.50;;;21.90;86.70;;;;;;4172567;28;20044;-60
2021/09/15 06:06:24;;;;;;;19.65;17.67;;;21.90;86.70;;;;;;4157050;28;20053;-61
2021/09/15 06:08:46;;;;;;;20.83;18.77;;;21.90;86.50;;;;;;4166649;28;20076;-60
2021/09/15 06:11:09;;;;;;;23.30;21.02;;;21.90;86.70;;;;;;4173247;28;20041;-60
2021/09/15 06:13:32;;;;;;;21.63;19.42;;;21.90;86.70;;;;;;4172207;28;20049;-59
2021/09/15 06:15:55;;;;;;;22.55;20.40;;;21.90;86.70;;;;;;4173403;28;20112;-59
2021/09/15 06:18:17;;;;;;;23.08;20.65;;;21.90;86.70;;;;;;4156843;28;20065;-59
2021/09/15 06:20:58;;;;;;;23.15;20.85;;;21.90;86.70;;;;;;4190630;28;20057;-61
2021/09/15 06:23:46;;;;;;;23.58;20.98;;;21.90;86.70;;;;;;4184222;28;20136;-62
2021/09/15 06:26:12;;;;;;;22.38;20.17;;;21.90;86.70;;;;;;4158069;28;20492;-59
2021/09/15 06:28:36;;;;;;;24.23;21.88;;;21.90;86.30;;;;;;4173918;28;20053;-57
2021/09/15 06:31:05;;;;;;;23.80;21.48;;;21.90;87.10;;;;;;4174392;28;20472;-59
2021/09/15 06:33:27;;;;;;;21.23;19.20;;;21.90;87.20;;;;;;4176308;28;20060;-60
2021/09/15 06:35:49;;;;;;;23.45;20.95;;;21.90;87.10;;;;;;4191327;28;20540;-60
2021/09/15 06:38:12;;;;;;;22.48;20.33;;;21.90;87.20;;;;;;4174779;28;20072;-60
2021/09/15 06:40:35;;;;;;;22.65;20.42;;;21.90;87.40;;;;;;4189951;28;20041;-60
2021/09/15 06:42:57;;;;;;;22.95;20.65;;;21.90;87.20;;;;;;4186367;28;20059;-60
2021/09/15 06:45:19;;;;;;;23.40;21.10;;;21.90;87.10;;;;;;4174326;28;20506;-62
2021/09/15 06:47:45;;;;;;;22.48;20.13;;;21.90;87.20;;;;;;4191267;28;20059;-61
2021/09/15 06:50:08;;;;;;;20.13;18.23;;;21.80;87.20;;;;;;4173770;28;20380;-61
2021/09/15 06:52:31;;;;;;;21.08;18.98;;;21.90;87.20;;;;;;4173645;28;20488;-59
2021/09/15 06:54:54;;;;;;;20.27;18.02;;;21.90;87.30;;;;;;4177402;28;20056;-60
2021/09/15 06:57:16;;;;;;;21.65;19.65;;;21.90;87.10;;;;;;4178836;28;20446;-60
2021/09/15 06:59:38;;;;;;;22.63;20.42;;;21.90;87.30;;;;;;4190469;28;20483;-61
2021/09/15 07:02:00;;;;;;;20.88;18.58;;;21.90;87.10;;;;;;4190741;28;20056;-60
2021/09/15 07:04:24;;;;;;;21.52;19.42;;;21.90;87.10;;;;;;4190799;28;20414;-60
2021/09/15 07:06:46;;;;;;;18.45;16.63;;;21.80;87.30;;;;;;4191109;28;20044;-60
2021/09/15 07:09:09;;;;;;;22.55;20.25;;;21.90;86.90;;;;;;4190066;28;20110;-60
2021/09/15 07:11:32;;;;;;;22.33;20.13;;;21.80;86.90;;;;;;4189668;28;20131;-60
2021/09/15 07:13:54;;;;;;;23.23;21.13;;;21.90;86.80;;;;;;4190481;28;20053;-59
2021/09/15 07:16:16;;;;;;;22.08;19.80;;;21.80;87.20;;;;;;4190264;28;20044;-60
2021/09/15 07:18:38;;;;;;;21.67;19.65;;;21.80;87.00;;;;;;4189601;28;20139;-59
2021/09/15 07:21:03;;;;;;;22.40;20.20;;;21.90;87.30;;;;;;4187213;28;20053;-59
2021/09/15 07:23:26;;;;;;;21.73;19.42;;;21.90;87.40;;;;;;4161635;28;20045;-61
2021/09/15 07:25:48;;;;;;;20.88;18.95;;;21.90;87.30;;;;;;4177311;28;20483;-60
2021/09/15 07:28:11;;;;;;;22.83;20.48;;;21.90;87.60;;;;;;4190478;28;20060;-58
2021/09/15 07:30:33;;;;;;;22.55;20.35;;;21.90;88.10;;;;;;4176942;28;20057;-60
2021/09/15 07:32:55;;;;;;;21.80;19.55;;;21.90;87.60;;;;;;4168721;28;20048;-59
2021/09/15 07:35:17;;;;;;;22.55;20.40;;;21.80;87.60;;;;;;4177083;28;20494;-60
2021/09/15 07:37:42;;;;;;;19.83;17.83;;;21.80;87.90;;;;;;4177300;28;20045;-59
2021/09/15 07:40:06;;;;;;;23.38;20.85;;;21.90;88.00;;;;;;4177112;28;20056;-59
2021/09/15 07:42:28;;;;;;;22.90;20.55;;;21.90;87.90;;;;;;4176259;28;20045;-59
2021/09/15 07:44:50;;;;;;;23.83;21.52;;;21.90;88.10;;;;;;4177196;28;20502;-59
2021/09/15 07:47:16;;;;;;;23.80;21.40;;;21.90;88.10;;;;;;4176768;28;20088;-61
2021/09/15 07:49:38;;;;;;;21.20;19.20;;;21.90;88.50;;;;;;4192577;28;20037;-60
2021/09/15 07:52:00;;;;;;;22.23;20.13;;;21.90;87.80;;;;;;4180571;28;20056;-61
2021/09/15 07:54:25;;;;;;;23.23;20.95;;;21.90;88.10;;;;;;4192905;28;20048;-61
2021/09/15 07:56:47;;;;;;;25.83;23.13;;;21.90;87.90;;;;;;4176259;28;20083;-61
2021/09/15 07:59:09;;;;;;;23.55;21.25;;;21.90;88.20;;;;;;4176328;28;20098;-60
2021/09/15 08:01:31;;;;;;;25.63;22.98;;;21.90;87.80;;;;;;4176705;28;20053;-58
2021/09/15 08:03:53;;;;;;;23.90;21.50;;;21.90;88.10;;;;;;4176414;28;20049;-59
2021/09/15 08:06:15;;;;;;;23.38;20.98;;;21.90;88.10;;;;;;4176569;28;20045;-59
2021/09/15 08:08:37;;;;;;;21.75;19.55;;;21.90;87.90;;;;;;4176173;28;20053;-58
2021/09/15 08:11:01;;;;;;;25.08;22.50;;;21.90;87.50;;;;;;4176141;28;20061;-60
2021/09/15 08:13:25;;;;;;;25.20;22.70;;;21.90;88.10;;;;;;4183725;28;20056;-60
2021/09/15 08:15:47;;;;;;;26.00;23.35;;;21.90;88.10;;;;;;4176524;28;20513;-59
2021/09/15 08:18:09;;;;;;;27.33;24.45;;;21.90;88.50;;;;;;4177498;28;20045;-60
2021/09/15 08:20:48;;;;;;;27.50;24.60;;;22.00;89.10;;;;;;4192144;28;20132;-60
2021/09/15 08:23:10;;;;;;;27.58;24.65;;;22.00;89.30;;;;;;4192832;28;20486;-60
2021/09/15 08:25:32;;;;;;;25.75;23.08;;;22.00;89.40;;;;;;4192775;28;20056;-59
2021/09/15 08:27:56;;;;;;;25.48;22.70;;;22.00;89.00;;;;;;4191815;28;20049;-59
2021/09/15 08:30:18;;;;;;;27.25;24.42;;;22.00;89.30;;;;;;4190551;28;20460;-59
2021/09/15 08:32:41;;;;;;;26.45;23.60;;;22.00;89.30;;;;;;4192641;28;20054;-60
2021/09/15 08:35:03;;;;;;;29.70;25.63;;;22.00;89.20;;;;;;4191254;28;20056;-59
2021/09/15 08:37:25;;;;;;;30.67;26.13;;;22.00;89.00;;;;;;4191074;28;20465;-60
2021/09/15 08:39:47;;;;;;;28.65;24.73;;;22.00;89.10;;;;;;4192306;28;20414;-60
2021/09/15 08:42:11;;;;;;;29.40;26.05;;;22.10;88.90;;;;;;4175957;28;20068;-59
2021/09/15 08:44:34;;;;;;;27.55;24.40;;;22.10;89.00;;;;;;4175853;28;20063;-59
2021/09/15 08:46:59;;;;;;;29.83;25.80;;;22.10;89.10;;;;;;4192936;28;20052;-59
2021/09/15 08:49:22;;;;;;;28.45;25.23;;;22.10;89.10;;;;;;4192014;28;20490;-59
2021/09/15 08:51:44;;;;;;;29.92;25.33;;;22.10;88.80;;;;;;4179615;28;20131;-59
2021/09/15 08:54:10;;;;;;;31.88;26.27;;;22.10;88.90;;;;;;4174473;28;20053;-60
2021/09/15 08:56:34;;;;;;;33.70;27.27;;;22.10;88.90;;;;;;4173964;28;20045;-59
2021/09/15 08:58:56;;;;;;;29.33;24.83;;;22.10;88.70;;;;;;4192154;28;20048;-59
2021/09/15 09:01:22;;;;;;;29.58;25.92;;;22.10;88.80;;;;;;4175819;28;20490;-59
2021/09/15 09:03:45;;;;;;;30.15;26.27;;;22.10;90.00;;;;;;4175486;28;20057;-59
2021/09/15 09:06:10;;;;;;;35.58;28.67;;;22.10;88.80;;;;;;4175706;28;20045;-59
2021/09/15 09:08:32;;;;;;;32.75;26.33;;;22.10;89.40;;;;;;4175783;28;20049;-59
2021/09/15 09:10:56;;;;;;;31.52;26.13;;;22.10;88.90;;;;;;4175914;28;20059;-60
2021/09/15 09:13:19;;;;;;;34.47;27.05;;;22.10;89.20;;;;;;4175454;28;20049;-60
2021/09/15 09:15:41;;;;;;;29.48;26.23;;;22.10;89.10;;;;;;4175604;28;20048;-59
2021/09/15 09:18:12;;;;;;;31.08;27.35;;;22.10;89.00;;;;;;4175312;28;20479;-60
2021/09/15 09:20:36;;;;;;;31.85;26.55;;;22.10;89.20;;;;;;4175630;28;20053;-59
2021/09/15 09:23:10;;;;;;;32.60;27.02;;;22.10;89.20;;;;;;4173988;28;20056;-60
2021/09/15 09:25:33;;;;;;;;;;;22.10;89.50;;;;;;4175780;28;20128;-59
2021/09/15 09:27:55;;;;;;;29.95;25.92;;;22.10;87.80;;;;;;4175546;28;20298;-59
2021/09/15 09:30:31;;;;;;;33.63;26.70;;;22.10;88.40;;;;;;4175318;28;20052;-60
2021/09/15 09:32:53;;;;;;;32.78;27.80;;;22.10;89.50;;;;;;4190249;28;20093;-60
2021/09/15 09:35:17;;;;;;;34.70;27.38;;;22.10;89.20;;;;;;4191114;28;20056;-60
2021/09/15 09:37:41;;;;;;;33.88;27.77;;;22.20;89.10;;;;;;4191775;28;20506;-60
2021/09/15 09:40:03;;;;;;;30.02;25.83;;;22.10;89.20;;;;;;4191399;28;20056;-60
2021/09/15 09:42:35;;;;;;;33.08;27.90;;;22.20;88.80;;;;;;4190537;28;20040;-60
2021/09/15 09:45:16;;;;;;;30.60;26.83;;;22.20;89.10;;;;;;4189414;28;20056;-59
2021/09/15 09:47:39;;;;;;;31.98;27.67;;;22.10;89.40;;;;;;4191146;28;20044;-59
2021/09/15 09:50:03;;;;;;;31.40;27.58;;;22.20;89.00;;;;;;4191700;28;20048;-59
2021/09/15 09:52:30;;;;;;;30.98;27.38;;;22.20;89.10;;;;;;4189904;28;20044;-61
2021/09/15 09:55:05;;;;;;;32.55;27.33;;;22.20;89.10;;;;;;4191240;28;20187;-60
2021/09/15 09:57:28;;;;;;;30.65;26.15;;;22.20;89.30;;;;;;4191605;28;20044;-60
2021/09/15 09:59:51;;;;;;;35.92;28.33;;;22.20;89.10;;;;;;4190768;28;20838;-60
2021/09/15 10:02:13;;;;;;;31.33;26.52;;;22.30;89.00;;;;;;4191106;28;20051;-60
2021/09/15 10:04:36;;;;;;;31.20;26.75;;;22.30;89.10;;;;;;4191105;28;20056;-60
2021/09/15 10:06:58;;;;;;;31.90;27.55;;;22.20;88.80;;;;;;4191579;28;20053;-59
2021/09/15 10:09:23;;;;;;;31.45;26.63;;;22.20;88.80;;;;;;4191643;28;20055;-60
2021/09/15 10:11:45;;;;;;;32.05;26.80;;;22.20;89.00;;;;;;4191229;28;20059;-60
2021/09/15 10:14:11;;;;;;;31.02;27.63;;;22.20;88.60;;;;;;4191098;28;20109;-60
2021/09/15 10:16:36;;;;;;;31.67;27.65;;;22.20;89.00;;;;;;4191118;28;20406;-59
2021/09/15 10:19:03;;;;;;;30.63;26.42;;;22.30;88.90;;;;;;4191439;28;20091;-59
2021/09/15 10:21:29;;;;;;;30.98;26.95;;;22.20;89.00;;;;;;4190787;28;20057;-60
2021/09/15 10:23:52;;;;;;;31.95;26.52;;;22.20;89.00;;;;;;4174697;28;20049;-59
2021/09/15 10:26:43;;;;;;;30.48;25.65;;;22.20;88.80;;;;;;4189811;28;20064;-59
2021/09/15 10:29:26;;;;;;;27.80;24.85;;;22.30;89.00;;;;;;4186651;28;20049;-60
2021/09/15 10:32:01;;;;;;;27.20;24.27;;;22.20;89.10;;;;;;4175247;28;20682;-59
2021/09/15 10:34:48;;;;;;;26.40;23.65;;;22.30;88.90;;;;;;4174391;28;20423;-59
2021/09/15 10:37:52;;;;;;;26.15;23.45;;;22.30;89.30;;;;;;4171368;28;20045;-59
2021/09/15 10:40:14;;;;;;;26.73;23.63;;;22.30;89.50;;;;;;4191445;28;20055;-59
2021/09/15 10:42:47;;;;;;;25.70;23.10;;;22.30;88.60;;;;;;4190900;28;20053;-59
2021/09/15 10:45:16;;;;;;;25.50;22.08;;;22.30;89.80;;;;;;4190819;28;20487;-59
2021/09/15 10:47:40;;;;;;;24.98;22.27;;;22.30;89.10;;;;;;4191151;28;20415;-60
2021/09/15 10:50:02;;;;;;;26.67;22.35;;;22.30;88.90;;;;;;4190967;28;20053;-59
2021/09/15 10:52:36;;;;;;;24.95;22.33;;;22.30;88.80;;;;;;4190228;28;20044;-60
2021/09/15 10:55:00;;;;;;;25.60;22.15;;;22.30;89.20;;;;;;4188960;28;20076;-60
2021/09/15 10:57:29;;;;;;;24.02;21.52;;;22.30;88.70;;;;;;4190720;28;20548;-59
2021/09/15 10:59:54;;;;;;;22.27;20.08;;;22.40;88.80;;;;;;4193107;28;20056;-59
2021/09/15 11:02:27;;;;;;;23.42;21.02;;;22.30;88.70;;;;;;4194240;28;20573;-60
2021/09/15 11:04:49;;;;;;;24.17;21.77;;;22.40;89.30;;;;;;4193837;28;20102;-60
2021/09/15 11:07:50;;;;;;;24.33;20.55;;;22.40;88.50;;;;;;4194330;28;20824;-60
2021/09/15 11:10:33;;;;;;;23.88;21.00;;;22.40;89.20;;;;;;4181137;28;20036;-59
2021/09/15 11:12:55;;;;;;;23.50;21.10;;;22.40;88.10;;;;;;4193991;28;20036;-59
2021/09/15 11:15:28;;;;;;;22.52;20.33;;;22.40;88.30;;;;;;4192757;28;20406;-59
2021/09/15 11:17:51;;;;;;;26.75;22.05;;;22.40;88.90;;;;;;4185324;28;20056;-58
2021/09/15 11:20:13;;;;;;;28.30;23.65;;;22.40;88.30;;;;;;4176280;28;20138;-58
2021/09/15 11:22:35;;;;;;;29.13;25.08;;;22.40;88.20;;;;;;4177308;28;20454;-59
2021/09/15 11:24:57;;;;;;;28.00;24.75;;;22.40;88.20;;;;;;4183970;28;20052;-59
2021/09/15 11:27:19;;;;;;;27.40;24.52;;;22.40;88.30;;;;;;4192405;28;20131;-58
2021/09/15 11:29:44;;;;;;;30.77;25.27;;;22.40;88.20;;;;;;4182291;28;20052;-59
2021/09/15 11:32:10;;;;;;;31.45;25.10;;;22.40;89.10;;;;;;4192921;28;20060;-58
2021/09/15 11:34:37;;;;;;;30.38;26.55;;;22.40;88.30;;;;;;4193042;28;20553;-59
2021/09/15 11:37:00;;;;;;;28.70;23.95;;;22.40;88.40;;;;;;4193542;28;20101;-59
2021/09/15 11:39:25;;;;;;;26.92;24.00;;;22.40;88.10;;;;;;4181456;28;20491;-59
2021/09/15 11:41:47;;;;;;;27.35;24.25;;;22.40;88.20;;;;;;4177008;28;20581;-59
2021/09/15 11:44:10;;;;;;;26.83;22.30;;;22.40;89.10;;;;;;4177108;28;20083;-58
2021/09/15 11:46:37;;;;;;;25.13;22.02;;;22.40;87.80;;;;;;4177053;28;20045;-59
2021/09/15 11:49:00;;;;;;;22.55;20.10;;;22.40;87.80;;;;;;4176299;28;20049;-58
2021/09/15 11:51:26;;;;;;;27.48;21.40;;;22.40;87.80;;;;;;4176978;28;20049;-58
2021/09/15 11:53:52;;;;;;;24.27;21.63;;;22.40;87.80;;;;;;4176340;28;20045;-59
2021/09/15 11:56:18;;;;;;;25.73;21.95;;;22.40;87.90;;;;;;4176734;28;20505;-58
2021/09/15 11:58:41;;;;;;;24.38;20.10;;;22.40;87.60;;;;;;4176696;28;20053;-59
2021/09/15 12:01:03;;;;;;;23.35;20.80;;;22.50;87.30;;;;;;4175945;28;20103;-59
2021/09/15 12:03:28;;;;;;;23.00;20.30;;;22.50;87.40;;;;;;4176641;28;20048;-59
2021/09/15 12:05:52;;;;;;;22.88;19.95;;;22.50;87.40;;;;;;4176843;28;20061;-59
2021/09/15 12:08:15;;;;;;;20.65;16.77;;;22.50;86.80;;;;;;4176632;28;20056;-59
2021/09/15 12:10:38;;;;;;;20.20;17.70;;;22.50;86.20;;;;;;4175414;28;20083;-60
2021/09/15 12:13:00;;;;;;;21.02;18.17;;;22.50;86.90;;;;;;4176853;28;20127;-60
2021/09/15 12:15:22;;;;;;;19.45;16.40;;;22.50;87.00;;;;;;4176706;28;20430;-60
2021/09/15 12:17:57;;;;;;;20.30;17.02;;;22.50;86.00;;;;;;4176470;28;20045;-60
2021/09/15 12:20:38;;;;;;;26.88;17.75;;;22.50;86.50;;;;;;4181431;28;20040;-60
2021/09/15 12:23:02;;;;;;;20.00;16.75;;;22.60;86.80;;;;;;4185819;28;20586;-61
2021/09/15 12:25:24;;;;;;;26.25;16.88;;;22.60;86.60;;;;;;4192947;28;20807;-60
2021/09/15 12:27:46;;;;;;;23.50;18.20;;;22.70;86.50;;;;;;4192310;28;20499;-61
2021/09/15 12:30:10;;;;;;;22.20;18.02;;;22.70;86.40;;;;;;4176430;28;20132;-61
2021/09/15 12:32:35;;;;;;;24.95;17.70;;;22.70;86.50;;;;;;4175617;28;20045;-61